createdAt,value
2024-02-12T00:02:53.470Z,100.00
2024-02-12T00:07:57.353Z,100.00
2024-02-12T00:13:02.317Z,100.00
2024-02-12T00:18:06.568Z,100.00
2024-02-12T00:23:10.213Z,100.00
2024-02-12T00:28:16.440Z,100.00
2024-02-12T00:33:21.024Z,100.00
2024-02-12T00:38:24.498Z,100.00
2024-02-12T00:43:29.292Z,100.00
2024-02-12T00:48:33.529Z,100.00
2024-02-12T00:53:40.249Z,100.00
2024-02-12T00:58:46.321Z,100.00
2024-02-12T01:03:50.697Z,100.00
2024-02-12T01:08:55.644Z,100.00
2024-02-12T01:14:04.891Z,100.00
2024-02-12T01:19:08.471Z,100.00
2024-02-12T01:24:15.072Z,100.00
2024-02-12T01:29:26.518Z,100.00
2024-02-12T01:34:31.670Z,100.00
2024-02-12T01:39:35.905Z,100.00
2024-02-12T01:44:52.140Z,100.00
2024-02-12T01:49:59.422Z,100.00
2024-02-12T01:55:06.540Z,100.00
2024-02-12T02:00:13.928Z,100.00
2024-02-12T02:05:17.889Z,100.00
2024-02-12T02:10:21.396Z,100.00
2024-02-12T02:15:27.016Z,100.00
2024-02-12T02:20:31.482Z,100.00
2024-02-12T02:25:36.342Z,100.00
2024-02-12T02:30:40.872Z,100.00
2024-02-12T02:35:46.000Z,100.00
2024-02-12T02:40:52.185Z,100.00
2024-02-12T02:45:57.292Z,100.00
2024-02-12T02:51:04.501Z,100.00
2024-02-12T02:56:11.279Z,100.00
2024-02-12T03:01:14.743Z,100.00
2024-02-12T03:06:18.290Z,100.00
2024-02-12T03:11:25.684Z,100.00
2024-02-12T03:16:29.184Z,100.00
2024-02-12T03:21:32.920Z,100.00
2024-02-12T03:26:37.892Z,100.00
2024-02-12T03:31:41.385Z,100.00
2024-02-12T03:36:44.999Z,100.00
2024-02-12T03:41:49.784Z,100.00
2024-02-12T03:46:55.628Z,100.00
2024-02-12T03:52:16.399Z,100.00
2024-02-12T03:57:53.184Z,100.00
2024-02-12T04:02:57.524Z,100.00
2024-02-12T04:08:01.148Z,100.00
2024-02-12T04:13:06.821Z,100.00
2024-02-12T04:18:11.061Z,100.00
2024-02-12T04:23:16.988Z,100.00
2024-02-12T04:28:30.916Z,100.00
2024-02-12T04:33:36.335Z,100.00
2024-02-12T04:38:39.898Z,100.00
2024-02-12T04:43:46.477Z,100.00
2024-02-12T04:48:50.064Z,100.00
2024-02-12T04:53:54.438Z,100.00
2024-02-12T04:59:00.039Z,100.00
2024-02-12T05:04:05.452Z,100.00
2024-02-12T05:09:11.717Z,100.00
2024-02-12T05:14:16.643Z,100.00
2024-02-12T05:19:39.435Z,100.00
2024-02-12T05:24:42.802Z,100.00
2024-02-12T05:29:47.683Z,100.00
2024-02-12T05:34:52.296Z,100.00
2024-02-12T05:40:02.047Z,100.00
2024-02-12T05:45:11.340Z,100.00
2024-02-12T05:50:15.725Z,100.00
2024-02-12T05:55:20.735Z,100.00
2024-02-12T06:00:26.454Z,100.00
2024-02-12T06:05:29.907Z,100.00
2024-02-12T06:10:37.325Z,100.00
2024-02-12T06:15:44.508Z,100.00
2024-02-12T06:20:49.148Z,99.90
2024-02-12T06:25:52.491Z,100.00
2024-02-12T06:30:57.404Z,100.00
2024-02-12T06:36:03.293Z,100.00
2024-02-12T06:41:07.338Z,100.00
2024-02-12T06:46:12.153Z,100.00
2024-02-12T06:51:15.596Z,100.00
2024-02-12T06:56:21.049Z,100.00
2024-02-12T07:01:28.577Z,100.00
2024-02-12T07:06:32.595Z,100.00
2024-02-12T07:11:36.019Z,100.00
2024-02-12T07:16:41.452Z,100.00
2024-02-12T07:21:44.810Z,100.00
2024-02-12T07:26:48.268Z,100.00
2024-02-12T07:31:53.135Z,100.00
2024-02-12T07:36:56.271Z,100.00
2024-02-12T07:42:05.975Z,100.00
2024-02-12T07:47:13.429Z,100.00
2024-02-12T07:52:17.731Z,100.00
2024-02-12T07:57:25.932Z,100.00
2024-02-12T08:02:32.748Z,100.00
2024-02-12T08:07:51.507Z,100.00
2024-02-12T08:13:02.673Z,100.00
2024-02-12T08:18:11.977Z,100.00
2024-02-12T08:23:19.126Z,100.00
2024-02-12T08:28:26.235Z,100.00
2024-02-12T08:33:32.648Z,100.00
2024-02-12T08:38:37.828Z,100.00
2024-02-12T08:43:42.958Z,100.00
2024-02-12T08:48:52.189Z,100.00
2024-02-12T08:54:00.071Z,100.00
2024-02-12T08:59:08.589Z,100.00
2024-02-12T09:04:14.498Z,100.00
2024-02-12T09:09:18.189Z,100.00
2024-02-12T09:14:22.274Z,99.33
2024-02-12T09:19:30.075Z,98.46
2024-02-12T09:24:35.016Z,98.85
2024-02-12T09:29:38.186Z,98.24
2024-02-12T09:34:43.361Z,98.06
2024-02-12T09:39:47.199Z,97.77
2024-02-12T09:44:50.943Z,95.70
2024-02-12T09:49:59.057Z,95.39
2024-02-12T09:55:04.343Z,95.30
2024-02-12T10:00:09.560Z,94.92
2024-02-12T10:05:21.609Z,94.83
2024-02-12T10:10:25.576Z,94.60
2024-02-12T10:15:31.867Z,94.46
2024-02-12T10:20:38.150Z,93.65
2024-02-12T10:25:44.273Z,93.69
2024-02-12T10:30:48.874Z,91.96
2024-02-12T10:35:54.586Z,90.29
2024-02-12T10:41:06.051Z,89.46
2024-02-12T10:46:10.641Z,86.59
2024-02-12T10:51:16.579Z,87.56
2024-02-12T10:56:21.461Z,84.78
2024-02-12T11:01:25.245Z,84.23
2024-02-12T11:06:31.501Z,82.36
2024-02-12T11:11:34.904Z,81.06
2024-02-12T11:16:41.432Z,78.90
2024-02-12T11:21:46.263Z,78.60
2024-02-12T11:26:52.904Z,76.90
2024-02-12T11:31:57.525Z,77.24
2024-02-12T11:37:05.035Z,72.41
2024-02-12T11:42:12.026Z,68.13
2024-02-12T11:47:15.431Z,63.66
2024-02-12T11:52:21.424Z,67.69
2024-02-12T11:57:26.240Z,61.28
2024-02-12T12:02:29.720Z,59.51
2024-02-12T12:07:34.526Z,56.66
2024-02-12T12:12:40.110Z,55.85
2024-02-12T12:17:43.904Z,56.12
2024-02-12T12:22:49.792Z,55.95
2024-02-12T12:27:53.478Z,53.52
2024-02-12T12:32:58.292Z,52.36
2024-02-12T12:38:09.805Z,51.81
2024-02-12T12:43:14.817Z,51.08
2024-02-12T12:48:19.144Z,49.43
2024-02-12T12:53:23.964Z,48.98
2024-02-12T12:58:27.381Z,47.68
2024-02-12T13:03:31.385Z,45.04
2024-02-12T13:08:37.235Z,48.43
2024-02-12T13:13:41.759Z,48.57
2024-02-12T13:18:47.008Z,46.35
2024-02-12T13:23:53.707Z,45.64
2024-02-12T13:28:57.125Z,47.87
2024-02-12T13:34:00.572Z,47.93
2024-02-12T13:39:06.260Z,45.62
2024-02-12T13:44:09.673Z,48.25
2024-02-12T13:49:15.909Z,46.55
2024-02-12T13:54:22.387Z,46.50
2024-02-12T13:59:25.886Z,46.38
2024-02-12T14:04:28.933Z,43.77
2024-02-12T14:09:33.727Z,45.13
2024-02-12T14:14:37.111Z,45.92
2024-02-12T14:19:45.159Z,46.95
2024-02-12T14:24:49.972Z,46.56
2024-02-12T14:29:53.320Z,47.56
2024-02-12T14:34:57.091Z,46.85
2024-02-12T14:40:02.277Z,46.94
2024-02-12T14:45:07.123Z,45.47
2024-02-12T14:50:13.511Z,48.12
2024-02-12T14:55:20.094Z,48.07
2024-02-12T15:00:25.616Z,47.06
2024-02-12T15:05:30.199Z,48.57
2024-02-12T15:10:36.957Z,49.74
2024-02-12T15:15:40.621Z,51.13
2024-02-12T15:20:44.047Z,53.00
2024-02-12T15:25:48.833Z,55.17
2024-02-12T15:30:53.360Z,57.08
2024-02-12T15:35:58.031Z,58.14
2024-02-12T15:41:03.137Z,59.44
2024-02-12T15:46:11.470Z,59.11
2024-02-12T15:51:15.394Z,56.91
2024-02-12T15:56:20.452Z,57.80
2024-02-12T16:01:26.975Z,57.47
2024-02-12T16:06:30.409Z,57.77
2024-02-12T16:11:35.265Z,57.12
2024-02-12T16:16:40.816Z,57.61
2024-02-12T16:21:45.949Z,59.42
2024-02-12T16:26:50.842Z,59.87
2024-02-12T16:31:54.339Z,60.30
2024-02-12T16:36:58.528Z,61.72
2024-02-12T16:42:03.375Z,62.42
2024-02-12T16:47:07.136Z,63.51
2024-02-12T16:52:11.957Z,64.82
2024-02-12T16:57:16.711Z,65.46
2024-02-12T17:02:20.755Z,66.61
2024-02-12T17:07:27.812Z,67.18
2024-02-12T17:12:32.993Z,67.00
2024-02-12T17:17:36.816Z,66.94
2024-02-12T17:22:40.832Z,67.74
2024-02-12T17:27:45.797Z,68.37
2024-02-12T17:32:49.453Z,68.37
2024-02-12T17:37:52.903Z,68.35
2024-02-12T17:42:58.175Z,68.46
2024-02-12T17:48:01.979Z,69.04
2024-02-12T17:53:05.888Z,68.75
2024-02-12T17:58:10.834Z,69.49
2024-02-12T18:03:14.316Z,69.67
2024-02-12T18:08:17.843Z,70.29
2024-02-12T18:13:22.659Z,70.62
2024-02-12T18:18:25.838Z,70.97
2024-02-12T18:23:29.342Z,70.34
2024-02-12T18:28:34.598Z,70.70
2024-02-12T18:33:38.127Z,71.26
2024-02-12T18:38:41.505Z,71.00
2024-02-12T18:43:46.303Z,70.75
2024-02-12T18:48:54.849Z,71.50
2024-02-12T18:53:58.941Z,70.48
2024-02-12T18:59:04.354Z,70.79
2024-02-12T19:04:07.914Z,71.07
2024-02-12T19:09:11.950Z,71.45
2024-02-12T19:14:17.273Z,71.58
2024-02-12T19:19:20.770Z,71.53
2024-02-12T19:24:24.544Z,72.31
2024-02-12T19:29:29.425Z,72.88
2024-02-12T19:34:32.797Z,72.99
2024-02-12T19:39:36.302Z,72.41
2024-02-12T19:44:41.085Z,72.48
2024-02-12T19:49:44.299Z,74.18
2024-02-12T19:54:47.631Z,73.39
2024-02-12T19:59:52.519Z,73.87
2024-02-12T20:04:56.174Z,74.11
2024-02-12T20:09:59.570Z,75.00
2024-02-12T20:15:05.664Z,75.56
2024-02-12T20:20:10.089Z,75.70
2024-02-12T20:25:13.732Z,75.74
2024-02-12T20:30:22.241Z,76.61
2024-02-12T20:35:25.899Z,76.77
2024-02-12T20:40:29.338Z,77.12
2024-02-12T20:45:34.644Z,77.23
2024-02-12T20:50:38.147Z,77.93
2024-02-12T20:55:41.474Z,77.82
2024-02-12T21:00:47.150Z,77.64
2024-02-12T21:05:50.786Z,78.46
2024-02-12T21:10:54.360Z,80.69
2024-02-12T21:15:59.332Z,82.10
2024-02-12T21:21:03.026Z,81.95
2024-02-12T21:26:08.120Z,81.27
2024-02-12T21:31:12.969Z,80.96
2024-02-12T21:36:17.400Z,81.59
2024-02-12T21:41:34.512Z,81.16
2024-02-12T21:46:42.139Z,81.22
2024-02-12T21:51:46.085Z,80.59
2024-02-12T21:56:50.241Z,80.73
2024-02-12T22:01:55.282Z,80.73
2024-02-12T22:06:58.381Z,81.61
2024-02-12T22:12:01.783Z,81.34
2024-02-12T22:17:07.296Z,81.17
2024-02-12T22:22:10.689Z,81.29
2024-02-12T22:27:14.036Z,82.07
2024-02-12T22:32:18.852Z,81.54
2024-02-12T22:37:21.925Z,82.39
2024-02-12T22:42:25.248Z,81.24
2024-02-12T22:47:30.099Z,81.23
2024-02-12T22:52:33.148Z,82.87
2024-02-12T22:57:36.494Z,83.39
2024-02-12T23:02:42.203Z,84.12
2024-02-12T23:07:46.008Z,83.10
2024-02-12T23:12:49.766Z,83.27
2024-02-12T23:17:54.602Z,84.49
2024-02-12T23:22:58.209Z,85.79
2024-02-12T23:28:03.029Z,84.11
2024-02-12T23:33:08.809Z,84.76
2024-02-12T23:38:14.875Z,83.68
2024-02-12T23:43:18.264Z,83.82
2024-02-12T23:48:23.608Z,83.75
2024-02-12T23:53:27.725Z,83.48
2024-02-12T23:58:31.779Z,84.68
